sensor_id;sensor_type;location;lat;lon;timestamp;temperature;humidity
43089;DHT22;28709;52.030;5.652;2023-04-02T00:01:38;6.50;99.90
43089;DHT22;28709;52.030;5.652;2023-04-02T00:04:18;6.50;99.90
43089;DHT22;28709;52.030;5.652;2023-04-02T00:06:49;6.50;99.90
43089;DHT22;28709;52.030;5.652;2023-04-02T00:09:25;6.40;99.90
43089;DHT22;28709;52.030;5.652;2023-04-02T00:11:53;6.30;99.90
43089;DHT22;28709;52.030;5.652;2023-04-02T00:14:32;6.30;99.90
43089;DHT22;28709;52.030;5.652;2023-04-02T00:17:02;6.30;99.90
43089;DHT22;28709;52.030;5.652;2023-04-02T00:19:35;6.30;99.90
43089;DHT22;28709;52.030;5.652;2023-04-02T00:22:08;6.20;99.90
43089;DHT22;28709;52.030;5.652;2023-04-02T00:24:38;6.20;99.90
43089;DHT22;28709;52.030;5.652;2023-04-02T00:27:12;6.20;99.90
43089;DHT22;28709;52.030;5.652;2023-04-02T00:29:53;6.20;99.90
43089;DHT22;28709;52.030;5.652;2023-04-02T00:32:34;6.30;99.90
43089;DHT22;28709;52.030;5.652;2023-04-02T00:35:01;6.30;99.90
43089;DHT22;28709;52.030;5.652;2023-04-02T00:37:29;6.20;99.90
43089;DHT22;28709;52.030;5.652;2023-04-02T00:40:08;6.20;99.90
43089;DHT22;28709;52.030;5.652;2023-04-02T00:42:36;6.20;99.90
43089;DHT22;28709;52.030;5.652;2023-04-02T00:45:05;6.20;99.90
43089;DHT22;28709;52.030;5.652;2023-04-02T00:47:34;6.20;99.90
43089;DHT22;28709;52.030;5.652;2023-04-02T00:50:38;6.20;99.90
43089;DHT22;28709;52.030;5.652;2023-04-02T00:53:11;6.20;99.90
43089;DHT22;28709;52.030;5.652;2023-04-02T00:55:40;6.10;99.90
43089;DHT22;28709;52.030;5.652;2023-04-02T00:58:33;6.10;99.90
43089;DHT22;28709;52.030;5.652;2023-04-02T01:01:00;6.10;99.90
43089;DHT22;28709;52.030;5.652;2023-04-02T01:03:30;6.10;99.90
43089;DHT22;28709;52.030;5.652;2023-04-02T01:12:01;6.00;99.90
43089;DHT22;28709;52.030;5.652;2023-04-02T01:22:46;5.90;99.90
43089;DHT22;28709;52.030;5.652;2023-04-02T01:26:08;6.00;99.90
43089;DHT22;28709;52.030;5.652;2023-04-02T01:31:09;5.90;99.90
43089;DHT22;28709;52.030;5.652;2023-04-02T01:33:34;5.90;99.90
43089;DHT22;28709;52.030;5.652;2023-04-02T01:36:24;5.90;99.90
43089;DHT22;28709;52.030;5.652;2023-04-02T01:39:11;5.90;99.90
43089;DHT22;28709;52.030;5.652;2023-04-02T01:44:48;5.90;99.90
43089;DHT22;28709;52.030;5.652;2023-04-02T01:47:18;5.90;99.90
43089;DHT22;28709;52.030;5.652;2023-04-02T01:49:44;5.90;99.90
43089;DHT22;28709;52.030;5.652;2023-04-02T01:52:24;5.90;99.90
43089;DHT22;28709;52.030;5.652;2023-04-02T01:54:51;5.80;99.90
43089;DHT22;28709;52.030;5.652;2023-04-02T01:57:17;5.80;99.90
43089;DHT22;28709;52.030;5.652;2023-04-02T01:59:44;5.80;99.90
43089;DHT22;28709;52.030;5.652;2023-04-02T02:02:11;5.80;99.90
43089;DHT22;28709;52.030;5.652;2023-04-02T02:04:38;5.70;99.90
43089;DHT22;28709;52.030;5.652;2023-04-02T02:07:05;5.70;99.90
43089;DHT22;28709;52.030;5.652;2023-04-02T02:09:35;5.70;99.90
43089;DHT22;28709;52.030;5.652;2023-04-02T02:12:02;5.70;99.90
43089;DHT22;28709;52.030;5.652;2023-04-02T02:14:30;5.70;99.90
43089;DHT22;28709;52.030;5.652;2023-04-02T02:16:58;5.70;99.90
43089;DHT22;28709;52.030;5.652;2023-04-02T02:22:05;5.60;99.90
43089;DHT22;28709;52.030;5.652;2023-04-02T02:24:33;5.60;99.90
43089;DHT22;28709;52.030;5.652;2023-04-02T02:27:42;5.60;99.90
43089;DHT22;28709;52.030;5.652;2023-04-02T02:30:19;5.60;99.90
43089;DHT22;28709;52.030;5.652;2023-04-02T02:35:43;5.50;99.90
43089;DHT22;28709;52.030;5.652;2023-04-02T02:38:26;5.50;99.90
43089;DHT22;28709;52.030;5.652;2023-04-02T02:40:57;5.50;99.90
43089;DHT22;28709;52.030;5.652;2023-04-02T02:43:25;5.40;99.90
43089;DHT22;28709;52.030;5.652;2023-04-02T02:45:52;5.40;99.90
43089;DHT22;28709;52.030;5.652;2023-04-02T02:48:29;5.40;99.90
43089;DHT22;28709;52.030;5.652;2023-04-02T02:50:56;5.40;99.90
43089;DHT22;28709;52.030;5.652;2023-04-02T02:53:23;5.40;99.90
43089;DHT22;28709;52.030;5.652;2023-04-02T02:55:52;5.40;99.90
43089;DHT22;28709;52.030;5.652;2023-04-02T02:58:24;5.40;99.90
43089;DHT22;28709;52.030;5.652;2023-04-02T03:00:52;5.40;99.90
43089;DHT22;28709;52.030;5.652;2023-04-02T03:03:21;5.40;99.90
43089;DHT22;28709;52.030;5.652;2023-04-02T03:06:03;5.40;99.90
43089;DHT22;28709;52.030;5.652;2023-04-02T03:08:56;5.40;99.90
43089;DHT22;28709;52.030;5.652;2023-04-02T03:13:54;5.40;99.90
43089;DHT22;28709;52.030;5.652;2023-04-02T03:16:35;5.40;99.90
43089;DHT22;28709;52.030;5.652;2023-04-02T03:19:43;5.40;99.90
43089;DHT22;28709;52.030;5.652;2023-04-02T03:22:24;5.30;99.90
43089;DHT22;28709;52.030;5.652;2023-04-02T03:25:04;5.40;99.90
43089;DHT22;28709;52.030;5.652;2023-04-02T03:27:40;5.40;99.90
43089;DHT22;28709;52.030;5.652;2023-04-02T03:32:55;5.40;99.90
43089;DHT22;28709;52.030;5.652;2023-04-02T03:35:37;5.30;99.90
43089;DHT22;28709;52.030;5.652;2023-04-02T03:38:19;5.30;99.90
43089;DHT22;28709;52.030;5.652;2023-04-02T03:41:12;5.20;99.90
43089;DHT22;28709;52.030;5.652;2023-04-02T03:43:43;5.20;99.90
43089;DHT22;28709;52.030;5.652;2023-04-02T03:46:36;5.10;99.90
43089;DHT22;28709;52.030;5.652;2023-04-02T03:49:09;5.10;99.90
43089;DHT22;28709;52.030;5.652;2023-04-02T03:51:49;5.10;99.90
43089;DHT22;28709;52.030;5.652;2023-04-02T03:54:15;5.10;99.90
43089;DHT22;28709;52.030;5.652;2023-04-02T03:56:43;5.10;99.90
43089;DHT22;28709;52.030;5.652;2023-04-02T04:02:26;5.10;99.90
43089;DHT22;28709;52.030;5.652;2023-04-02T04:04:57;5.10;99.90
43089;DHT22;28709;52.030;5.652;2023-04-02T04:07:33;5.10;99.90
43089;DHT22;28709;52.030;5.652;2023-04-02T04:10:02;5.00;99.90
43089;DHT22;28709;52.030;5.652;2023-04-02T04:12:35;5.00;99.90
43089;DHT22;28709;52.030;5.652;2023-04-02T04:17:59;4.80;99.90
43089;DHT22;28709;52.030;5.652;2023-04-02T04:20:35;4.80;99.90
43089;DHT22;28709;52.030;5.652;2023-04-02T04:23:13;4.70;99.90
43089;DHT22;28709;52.030;5.652;2023-04-02T04:25:41;4.70;99.90
43089;DHT22;28709;52.030;5.652;2023-04-02T04:28:24;4.60;99.90
43089;DHT22;28709;52.030;5.652;2023-04-02T04:31:22;4.60;99.90
43089;DHT22;28709;52.030;5.652;2023-04-02T04:33:53;4.60;99.90
43089;DHT22;28709;52.030;5.652;2023-04-02T04:36:24;4.50;99.90
43089;DHT22;28709;52.030;5.652;2023-04-02T04:38:56;4.50;99.90
43089;DHT22;28709;52.030;5.652;2023-04-02T04:41:28;4.40;99.90
43089;DHT22;28709;52.030;5.652;2023-04-02T04:44:24;4.50;99.90
43089;DHT22;28709;52.030;5.652;2023-04-02T04:47:17;4.40;99.90
43089;DHT22;28709;52.030;5.652;2023-04-02T04:49:51;4.40;99.90
43089;DHT22;28709;52.030;5.652;2023-04-02T04:52:22;4.40;99.90
43089;DHT22;28709;52.030;5.652;2023-04-02T04:54:48;4.30;99.90
43089;DHT22;28709;52.030;5.652;2023-04-02T04:57:37;4.30;99.90
43089;DHT22;28709;52.030;5.652;2023-04-02T05:00:17;4.30;99.90
43089;DHT22;28709;52.030;5.652;2023-04-02T05:02:56;4.40;99.90
43089;DHT22;28709;52.030;5.652;2023-04-02T05:05:29;4.40;99.90
43089;DHT22;28709;52.030;5.652;2023-04-02T05:08:19;4.30;99.90
43089;DHT22;28709;52.030;5.652;2023-04-02T05:11:02;4.30;99.90
43089;DHT22;28709;52.030;5.652;2023-04-02T05:19:05;4.20;99.90
43089;DHT22;28709;52.030;5.652;2023-04-02T05:21:46;4.20;99.90
43089;DHT22;28709;52.030;5.652;2023-04-02T05:24:36;4.10;99.90
43089;DHT22;28709;52.030;5.652;2023-04-02T05:30:37;4.10;99.90
43089;DHT22;28709;52.030;5.652;2023-04-02T05:33:00;4.00;99.90
43089;DHT22;28709;52.030;5.652;2023-04-02T05:35:46;4.00;99.90
43089;DHT22;28709;52.030;5.652;2023-04-02T05:38:26;4.00;99.90
43089;DHT22;28709;52.030;5.652;2023-04-02T05:41:03;4.00;99.90
43089;DHT22;28709;52.030;5.652;2023-04-02T05:43:32;4.00;99.90
43089;DHT22;28709;52.030;5.652;2023-04-02T05:46:04;4.00;99.90
43089;DHT22;28709;52.030;5.652;2023-04-02T05:48:42;4.00;99.90
43089;DHT22;28709;52.030;5.652;2023-04-02T05:51:16;4.00;99.90
43089;DHT22;28709;52.030;5.652;2023-04-02T05:53:52;4.00;99.90
43089;DHT22;28709;52.030;5.652;2023-04-02T05:56:25;4.00;99.90
43089;DHT22;28709;52.030;5.652;2023-04-02T05:59:22;3.90;99.90
43089;DHT22;28709;52.030;5.652;2023-04-02T06:01:54;3.90;99.90
43089;DHT22;28709;52.030;5.652;2023-04-02T06:04:49;3.90;99.90
43089;DHT22;28709;52.030;5.652;2023-04-02T06:07:30;3.90;99.90
43089;DHT22;28709;52.030;5.652;2023-04-02T06:15:21;3.80;99.90
43089;DHT22;28709;52.030;5.652;2023-04-02T06:17:57;3.80;99.90
43089;DHT22;28709;52.030;5.652;2023-04-02T06:20:24;3.80;99.90
43089;DHT22;28709;52.030;5.652;2023-04-02T06:22:58;3.80;99.90
43089;DHT22;28709;52.030;5.652;2023-04-02T06:25:32;3.70;99.90
43089;DHT22;28709;52.030;5.652;2023-04-02T06:28:01;3.70;99.90
43089;DHT22;28709;52.030;5.652;2023-04-02T06:30:35;3.70;99.90
43089;DHT22;28709;52.030;5.652;2023-04-02T06:33:02;3.70;99.90
43089;DHT22;28709;52.030;5.652;2023-04-02T06:35:28;3.60;99.90
43089;DHT22;28709;52.030;5.652;2023-04-02T06:37:56;3.60;99.90
43089;DHT22;28709;52.030;5.652;2023-04-02T06:40:35;3.60;99.90
43089;DHT22;28709;52.030;5.652;2023-04-02T06:43:36;3.60;99.90
43089;DHT22;28709;52.030;5.652;2023-04-02T06:46:17;3.60;99.90
43089;DHT22;28709;52.030;5.652;2023-04-02T06:48:45;3.60;99.90
43089;DHT22;28709;52.030;5.652;2023-04-02T06:51:13;3.60;99.90
43089;DHT22;28709;52.030;5.652;2023-04-02T06:53:48;3.60;99.90
43089;DHT22;28709;52.030;5.652;2023-04-02T06:56:40;3.60;99.90
43089;DHT22;28709;52.030;5.652;2023-04-02T06:59:07;3.60;99.90
43089;DHT22;28709;52.030;5.652;2023-04-02T07:01:37;3.50;99.90
43089;DHT22;28709;52.030;5.652;2023-04-02T07:04:05;3.60;99.90
43089;DHT22;28709;52.030;5.652;2023-04-02T07:06:31;3.60;99.90
43089;DHT22;28709;52.030;5.652;2023-04-02T07:08:57;3.50;99.90
43089;DHT22;28709;52.030;5.652;2023-04-02T07:11:22;3.50;99.90
43089;DHT22;28709;52.030;5.652;2023-04-02T07:13:49;3.40;99.90
43089;DHT22;28709;52.030;5.652;2023-04-02T07:16:21;3.40;99.90
43089;DHT22;28709;52.030;5.652;2023-04-02T07:18:47;3.40;99.90
43089;DHT22;28709;52.030;5.652;2023-04-02T07:21:13;3.50;99.90
43089;DHT22;28709;52.030;5.652;2023-04-02T07:23:39;3.50;99.90
43089;DHT22;28709;52.030;5.652;2023-04-02T07:26:06;3.40;99.90
43089;DHT22;28709;52.030;5.652;2023-04-02T07:28:32;3.40;99.90
43089;DHT22;28709;52.030;5.652;2023-04-02T07:30:57;3.40;99.90
43089;DHT22;28709;52.030;5.652;2023-04-02T07:33:26;3.50;99.90
43089;DHT22;28709;52.030;5.652;2023-04-02T07:35:54;3.60;99.90
43089;DHT22;28709;52.030;5.652;2023-04-02T07:38:19;3.50;99.90
43089;DHT22;28709;52.030;5.652;2023-04-02T07:40:45;3.50;99.90
43089;DHT22;28709;52.030;5.652;2023-04-02T07:43:11;3.60;99.90
43089;DHT22;28709;52.030;5.652;2023-04-02T07:45:37;3.60;99.90
43089;DHT22;28709;52.030;5.652;2023-04-02T07:48:07;3.70;99.90
43089;DHT22;28709;52.030;5.652;2023-04-02T07:50:33;3.70;99.90
43089;DHT22;28709;52.030;5.652;2023-04-02T07:52:59;3.70;99.90
43089;DHT22;28709;52.030;5.652;2023-04-02T07:55:25;3.70;99.90
43089;DHT22;28709;52.030;5.652;2023-04-02T07:57:55;3.70;99.90
43089;DHT22;28709;52.030;5.652;2023-04-02T08:00:22;3.80;99.90
43089;DHT22;28709;52.030;5.652;2023-04-02T08:02:49;3.80;99.90
43089;DHT22;28709;52.030;5.652;2023-04-02T08:05:15;3.80;99.90
43089;DHT22;28709;52.030;5.652;2023-04-02T08:07:41;3.80;99.90
43089;DHT22;28709;52.030;5.652;2023-04-02T08:10:09;3.80;99.90
43089;DHT22;28709;52.030;5.652;2023-04-02T08:12:34;3.80;99.90
43089;DHT22;28709;52.030;5.652;2023-04-02T08:15:00;3.90;99.90
43089;DHT22;28709;52.030;5.652;2023-04-02T08:17:26;4.00;99.90
43089;DHT22;28709;52.030;5.652;2023-04-02T08:19:59;4.10;99.90
43089;DHT22;28709;52.030;5.652;2023-04-02T08:22:26;4.10;99.90
43089;DHT22;28709;52.030;5.652;2023-04-02T08:24:52;4.20;99.90
43089;DHT22;28709;52.030;5.652;2023-04-02T08:27:17;4.10;99.90
43089;DHT22;28709;52.030;5.652;2023-04-02T08:29:44;4.00;99.90
43089;DHT22;28709;52.030;5.652;2023-04-02T08:32:12;4.00;99.90
43089;DHT22;28709;52.030;5.652;2023-04-02T08:34:40;3.90;99.90
43089;DHT22;28709;52.030;5.652;2023-04-02T08:37:11;3.80;99.90
43089;DHT22;28709;52.030;5.652;2023-04-02T08:39:37;3.90;99.90
43089;DHT22;28709;52.030;5.652;2023-04-02T08:42:33;3.90;99.90
43089;DHT22;28709;52.030;5.652;2023-04-02T08:47:43;4.00;99.90
43089;DHT22;28709;52.030;5.652;2023-04-02T08:52:39;4.00;99.90
43089;DHT22;28709;52.030;5.652;2023-04-02T08:55:36;4.00;99.90
43089;DHT22;28709;52.030;5.652;2023-04-02T08:58:25;4.00;99.90
43089;DHT22;28709;52.030;5.652;2023-04-02T09:00:55;4.00;99.90
43089;DHT22;28709;52.030;5.652;2023-04-02T09:03:34;4.00;99.90
43089;DHT22;28709;52.030;5.652;2023-04-02T09:06:03;4.00;99.90
43089;DHT22;28709;52.030;5.652;2023-04-02T09:08:32;4.00;99.90
43089;DHT22;28709;52.030;5.652;2023-04-02T09:11:08;4.00;99.90
43089;DHT22;28709;52.030;5.652;2023-04-02T09:13:41;3.90;99.90
43089;DHT22;28709;52.030;5.652;2023-04-02T09:16:17;4.00;99.90
43089;DHT22;28709;52.030;5.652;2023-04-02T09:18:46;4.10;99.90
43089;DHT22;28709;52.030;5.652;2023-04-02T09:23:45;4.30;99.90
43089;DHT22;28709;52.030;5.652;2023-04-02T09:26:26;4.30;99.90
43089;DHT22;28709;52.030;5.652;2023-04-02T09:29:42;4.30;99.90
43089;DHT22;28709;52.030;5.652;2023-04-02T09:32:01;4.40;99.90
43089;DHT22;28709;52.030;5.652;2023-04-02T09:34:32;4.40;99.90
43089;DHT22;28709;52.030;5.652;2023-04-02T09:39:38;4.60;99.90
43089;DHT22;28709;52.030;5.652;2023-04-02T09:42:28;4.60;99.90
43089;DHT22;28709;52.030;5.652;2023-04-02T09:45:20;4.70;99.90
43089;DHT22;28709;52.030;5.652;2023-04-02T09:47:47;4.90;99.90
43089;DHT22;28709;52.030;5.652;2023-04-02T09:50:32;5.10;99.90
43089;DHT22;28709;52.030;5.652;2023-04-02T09:52:59;5.10;99.90
43089;DHT22;28709;52.030;5.652;2023-04-02T09:55:41;5.20;99.90
43089;DHT22;28709;52.030;5.652;2023-04-02T10:00:36;5.20;99.90
43089;DHT22;28709;52.030;5.652;2023-04-02T10:05:42;5.30;99.90
43089;DHT22;28709;52.030;5.652;2023-04-02T10:10:49;5.40;99.90
43089;DHT22;28709;52.030;5.652;2023-04-02T10:16:15;6.00;99.90
43089;DHT22;28709;52.030;5.652;2023-04-02T10:21:23;6.50;99.90
43089;DHT22;28709;52.030;5.652;2023-04-02T10:23:49;6.50;99.90
43089;DHT22;28709;52.030;5.652;2023-04-02T10:26:34;6.70;99.90
43089;DHT22;28709;52.030;5.652;2023-04-02T10:34:55;6.60;99.90
43089;DHT22;28709;52.030;5.652;2023-04-02T10:42:52;7.40;99.90
43089;DHT22;28709;52.030;5.652;2023-04-02T10:48:15;8.10;99.90
43089;DHT22;28709;52.030;5.652;2023-04-02T10:56:14;8.80;99.90
43089;DHT22;28709;52.030;5.652;2023-04-02T10:59:01;9.00;99.90
43089;DHT22;28709;52.030;5.652;2023-04-02T11:01:29;9.30;99.90
43089;DHT22;28709;52.030;5.652;2023-04-02T11:04:21;9.50;99.90
43089;DHT22;28709;52.030;5.652;2023-04-02T11:06:57;9.40;99.90
43089;DHT22;28709;52.030;5.652;2023-04-02T11:09:28;9.40;99.90
43089;DHT22;28709;52.030;5.652;2023-04-02T11:11:57;9.60;99.90
43089;DHT22;28709;52.030;5.652;2023-04-02T11:14:30;9.70;99.90
43089;DHT22;28709;52.030;5.652;2023-04-02T11:16:58;10.00;99.90
43089;DHT22;28709;52.030;5.652;2023-04-02T11:19:28;10.30;99.90
43089;DHT22;28709;52.030;5.652;2023-04-02T11:22:00;10.10;99.90
43089;DHT22;28709;52.030;5.652;2023-04-02T11:24:37;9.90;99.90
43089;DHT22;28709;52.030;5.652;2023-04-02T11:27:17;9.70;99.90
43089;DHT22;28709;52.030;5.652;2023-04-02T11:32:39;10.10;99.90
43089;DHT22;28709;52.030;5.652;2023-04-02T11:38:02;10.60;99.90
43089;DHT22;28709;52.030;5.652;2023-04-02T11:40:49;11.00;99.90
43089;DHT22;28709;52.030;5.652;2023-04-02T11:43:47;11.10;99.90
43089;DHT22;28709;52.030;5.652;2023-04-02T11:51:58;11.80;99.90
43089;DHT22;28709;52.030;5.652;2023-04-02T11:54:28;12.30;99.30
43089;DHT22;28709;52.030;5.652;2023-04-02T11:57:00;12.60;99.20
43089;DHT22;28709;52.030;5.652;2023-04-02T11:59:43;12.90;97.30
43089;DHT22;28709;52.030;5.652;2023-04-02T12:02:27;13.00;96.90
43089;DHT22;28709;52.030;5.652;2023-04-02T12:08:22;12.80;96.60
43089;DHT22;28709;52.030;5.652;2023-04-02T12:10:50;12.70;94.40
43089;DHT22;28709;52.030;5.652;2023-04-02T12:16:12;11.80;94.90
43089;DHT22;28709;52.030;5.652;2023-04-02T12:18:47;11.90;94.40
43089;DHT22;28709;52.030;5.652;2023-04-02T12:21:22;11.90;93.60
43089;DHT22;28709;52.030;5.652;2023-04-02T12:23:51;11.80;94.10
43089;DHT22;28709;52.030;5.652;2023-04-02T12:26:35;11.80;93.60
43089;DHT22;28709;52.030;5.652;2023-04-02T12:29:34;11.60;93.90
43089;DHT22;28709;52.030;5.652;2023-04-02T12:32:03;11.60;94.80
43089;DHT22;28709;52.030;5.652;2023-04-02T12:34:44;11.90;94.50
43089;DHT22;28709;52.030;5.652;2023-04-02T12:37:21;12.20;93.80
43089;DHT22;28709;52.030;5.652;2023-04-02T12:39:55;12.70;93.60
43089;DHT22;28709;52.030;5.652;2023-04-02T12:42:26;13.20;92.00
43089;DHT22;28709;52.030;5.652;2023-04-02T12:44:52;13.20;91.30
43089;DHT22;28709;52.030;5.652;2023-04-02T12:47:18;12.90;91.80
43089;DHT22;28709;52.030;5.652;2023-04-02T12:49:44;12.90;91.40
43089;DHT22;28709;52.030;5.652;2023-04-02T12:52:14;12.90;91.40
43089;DHT22;28709;52.030;5.652;2023-04-02T12:54:56;12.80;90.70
43089;DHT22;28709;52.030;5.652;2023-04-02T12:59:55;12.70;91.20
43089;DHT22;28709;52.030;5.652;2023-04-02T13:02:29;13.00;91.20
43089;DHT22;28709;52.030;5.652;2023-04-02T13:05:00;13.30;91.00
43089;DHT22;28709;52.030;5.652;2023-04-02T13:07:31;13.10;90.20
43089;DHT22;28709;52.030;5.652;2023-04-02T13:10:17;12.90;90.00
43089;DHT22;28709;52.030;5.652;2023-04-02T13:12:46;12.70;89.80
43089;DHT22;28709;52.030;5.652;2023-04-02T13:15:38;12.80;90.10
43089;DHT22;28709;52.030;5.652;2023-04-02T13:22:58;13.70;90.00
43089;DHT22;28709;52.030;5.652;2023-04-02T13:25:31;13.80;89.50
43089;DHT22;28709;52.030;5.652;2023-04-02T13:27:59;14.10;90.20
43089;DHT22;28709;52.030;5.652;2023-04-02T13:30:27;14.10;86.20
43089;DHT22;28709;52.030;5.652;2023-04-02T13:32:54;13.70;86.60
43089;DHT22;28709;52.030;5.652;2023-04-02T13:35:19;13.10;86.70
43089;DHT22;28709;52.030;5.652;2023-04-02T13:37:46;12.30;88.60
43089;DHT22;28709;52.030;5.652;2023-04-02T13:40:13;11.70;89.90
43089;DHT22;28709;52.030;5.652;2023-04-02T13:42:41;11.30;90.60
43089;DHT22;28709;52.030;5.652;2023-04-02T13:47:41;10.70;91.40
43089;DHT22;28709;52.030;5.652;2023-04-02T13:50:07;10.50;91.90
43089;DHT22;28709;52.030;5.652;2023-04-02T13:52:33;10.40;92.20
43089;DHT22;28709;52.030;5.652;2023-04-02T13:54:59;10.10;92.40
43089;DHT22;28709;52.030;5.652;2023-04-02T13:57:25;10.00;92.80
43089;DHT22;28709;52.030;5.652;2023-04-02T13:59:51;10.00;93.20
43089;DHT22;28709;52.030;5.652;2023-04-02T14:02:19;9.90;93.40
43089;DHT22;28709;52.030;5.652;2023-04-02T14:04:54;9.90;93.80
43089;DHT22;28709;52.030;5.652;2023-04-02T14:13:11;9.90;94.20
43089;DHT22;28709;52.030;5.652;2023-04-02T14:18:41;10.00;94.20
43089;DHT22;28709;52.030;5.652;2023-04-02T14:29:19;9.80;93.90
43089;DHT22;28709;52.030;5.652;2023-04-02T14:31:58;9.80;93.70
43089;DHT22;28709;52.030;5.652;2023-04-02T14:35:04;9.80;94.00
43089;DHT22;28709;52.030;5.652;2023-04-02T14:37:44;9.90;94.50
43089;DHT22;28709;52.030;5.652;2023-04-02T14:56:23;10.00;93.60
43089;DHT22;28709;52.030;5.652;2023-04-02T14:59:24;10.00;93.50
43089;DHT22;28709;52.030;5.652;2023-04-02T15:02:01;10.00;92.90
43089;DHT22;28709;52.030;5.652;2023-04-02T15:04:40;9.80;92.70
43089;DHT22;28709;52.030;5.652;2023-04-02T15:07:16;9.80;93.20
43089;DHT22;28709;52.030;5.652;2023-04-02T15:09:50;9.80;93.20
43089;DHT22;28709;52.030;5.652;2023-04-02T15:12:32;9.80;92.80
43089;DHT22;28709;52.030;5.652;2023-04-02T15:15:26;9.80;93.00
43089;DHT22;28709;52.030;5.652;2023-04-02T15:17:53;9.80;92.60
43089;DHT22;28709;52.030;5.652;2023-04-02T15:20:19;9.80;92.40
43089;DHT22;28709;52.030;5.652;2023-04-02T15:23:00;9.70;92.30
43089;DHT22;28709;52.030;5.652;2023-04-02T15:25:37;9.60;92.50
43089;DHT22;28709;52.030;5.652;2023-04-02T15:30:41;9.70;92.90
43089;DHT22;28709;52.030;5.652;2023-04-02T15:33:30;9.70;93.10
43089;DHT22;28709;52.030;5.652;2023-04-02T15:38:43;9.70;93.10
43089;DHT22;28709;52.030;5.652;2023-04-02T15:41:14;9.70;92.90
43089;DHT22;28709;52.030;5.652;2023-04-02T16:00:26;9.80;93.20
43089;DHT22;28709;52.030;5.652;2023-04-02T16:10:52;9.70;93.50
43089;DHT22;28709;52.030;5.652;2023-04-02T16:13:30;9.70;93.40
43089;DHT22;28709;52.030;5.652;2023-04-02T16:16:05;9.70;93.60
43089;DHT22;28709;52.030;5.652;2023-04-02T16:21:14;9.80;93.90
43089;DHT22;28709;52.030;5.652;2023-04-02T16:23:42;9.80;93.80
43089;DHT22;28709;52.030;5.652;2023-04-02T16:28:41;9.70;93.60
43089;DHT22;28709;52.030;5.652;2023-04-02T16:34:46;9.60;93.80
43089;DHT22;28709;52.030;5.652;2023-04-02T16:48:20;9.70;94.80
43089;DHT22;28709;52.030;5.652;2023-04-02T16:56:45;9.70;94.50
43089;DHT22;28709;52.030;5.652;2023-04-02T17:04:57;9.60;94.80
43089;DHT22;28709;52.030;5.652;2023-04-02T17:10:44;9.60;95.10
43089;DHT22;28709;52.030;5.652;2023-04-02T17:13:16;9.60;95.00
43089;DHT22;28709;52.030;5.652;2023-04-02T17:15:48;9.60;95.00
43089;DHT22;28709;52.030;5.652;2023-04-02T17:18:20;9.50;95.20
43089;DHT22;28709;52.030;5.652;2023-04-02T17:20:49;9.50;95.40
43089;DHT22;28709;52.030;5.652;2023-04-02T17:23:16;9.50;95.50
43089;DHT22;28709;52.030;5.652;2023-04-02T17:26:01;9.50;95.70
43089;DHT22;28709;52.030;5.652;2023-04-02T17:28:31;9.40;95.90
43089;DHT22;28709;52.030;5.652;2023-04-02T17:31:04;9.40;95.80
43089;DHT22;28709;52.030;5.652;2023-04-02T17:33:34;9.40;95.90
43089;DHT22;28709;52.030;5.652;2023-04-02T17:38:39;9.30;95.90
43089;DHT22;28709;52.030;5.652;2023-04-02T17:50:08;9.10;96.30
43089;DHT22;28709;52.030;5.652;2023-04-02T17:52:47;9.10;96.40
43089;DHT22;28709;52.030;5.652;2023-04-02T18:01:06;8.90;97.00
43089;DHT22;28709;52.030;5.652;2023-04-02T18:03:49;8.80;97.20
43089;DHT22;28709;52.030;5.652;2023-04-02T18:06:31;8.70;97.20
43089;DHT22;28709;52.030;5.652;2023-04-02T18:09:24;8.70;97.30
43089;DHT22;28709;52.030;5.652;2023-04-02T18:12:20;8.60;97.50
43089;DHT22;28709;52.030;5.652;2023-04-02T18:17:44;8.40;97.80
43089;DHT22;28709;52.030;5.652;2023-04-02T18:20:39;8.40;98.10
43089;DHT22;28709;52.030;5.652;2023-04-02T18:46:50;7.90;99.90
43089;DHT22;28709;52.030;5.652;2023-04-02T18:49:31;7.80;99.90
43089;DHT22;28709;52.030;5.652;2023-04-02T18:52:02;7.70;99.90
43089;DHT22;28709;52.030;5.652;2023-04-02T18:57:16;7.60;99.90
43089;DHT22;28709;52.030;5.652;2023-04-02T19:02:41;7.50;99.90
43089;DHT22;28709;52.030;5.652;2023-04-02T19:05:38;7.50;99.90
43089;DHT22;28709;52.030;5.652;2023-04-02T19:11:12;7.40;99.90
43089;DHT22;28709;52.030;5.652;2023-04-02T19:13:38;7.30;99.90
43089;DHT22;28709;52.030;5.652;2023-04-02T19:16:18;7.30;99.90
43089;DHT22;28709;52.030;5.652;2023-04-02T19:30:28;7.00;99.90
43089;DHT22;28709;52.030;5.652;2023-04-02T19:35:37;6.90;99.90
43089;DHT22;28709;52.030;5.652;2023-04-02T19:40:59;6.80;99.90
43089;DHT22;28709;52.030;5.652;2023-04-02T19:43:28;6.70;99.90
43089;DHT22;28709;52.030;5.652;2023-04-02T19:45:54;6.70;99.90
43089;DHT22;28709;52.030;5.652;2023-04-02T19:48:24;6.60;99.90
43089;DHT22;28709;52.030;5.652;2023-04-02T19:50:51;6.60;99.90
43089;DHT22;28709;52.030;5.652;2023-04-02T19:53:17;6.50;99.90
43089;DHT22;28709;52.030;5.652;2023-04-02T19:55:43;6.50;99.90
43089;DHT22;28709;52.030;5.652;2023-04-02T19:58:27;6.50;99.90
43089;DHT22;28709;52.030;5.652;2023-04-02T20:00:53;6.40;99.90
43089;DHT22;28709;52.030;5.652;2023-04-02T20:03:19;6.40;99.90
43089;DHT22;28709;52.030;5.652;2023-04-02T20:05:45;6.30;99.90
43089;DHT22;28709;52.030;5.652;2023-04-02T20:08:11;6.30;99.90
43089;DHT22;28709;52.030;5.652;2023-04-02T20:10:36;6.20;99.90
43089;DHT22;28709;52.030;5.652;2023-04-02T20:13:02;6.20;99.90
43089;DHT22;28709;52.030;5.652;2023-04-02T20:15:28;6.10;99.90
43089;DHT22;28709;52.030;5.652;2023-04-02T20:17:54;6.10;99.90
43089;DHT22;28709;52.030;5.652;2023-04-02T20:20:19;6.10;99.90
43089;DHT22;28709;52.030;5.652;2023-04-02T20:22:46;6.00;99.90
43089;DHT22;28709;52.030;5.652;2023-04-02T20:25:12;6.00;99.90
43089;DHT22;28709;52.030;5.652;2023-04-02T20:27:37;5.90;99.90
43089;DHT22;28709;52.030;5.652;2023-04-02T20:30:03;5.90;99.90
43089;DHT22;28709;52.030;5.652;2023-04-02T20:32:29;5.90;99.90
43089;DHT22;28709;52.030;5.652;2023-04-02T20:34:55;5.80;99.90
43089;DHT22;28709;52.030;5.652;2023-04-02T20:37:21;5.70;99.90
43089;DHT22;28709;52.030;5.652;2023-04-02T20:39:46;5.70;99.90
43089;DHT22;28709;52.030;5.652;2023-04-02T20:42:12;5.70;99.90
43089;DHT22;28709;52.030;5.652;2023-04-02T20:44:39;5.70;99.90
43089;DHT22;28709;52.030;5.652;2023-04-02T20:47:05;5.60;99.90
43089;DHT22;28709;52.030;5.652;2023-04-02T20:49:32;5.60;99.90
43089;DHT22;28709;52.030;5.652;2023-04-02T20:51:58;5.60;99.90
43089;DHT22;28709;52.030;5.652;2023-04-02T20:54:23;5.50;99.90
43089;DHT22;28709;52.030;5.652;2023-04-02T20:56:49;5.50;99.90
43089;DHT22;28709;52.030;5.652;2023-04-02T20:59:16;5.50;99.90
43089;DHT22;28709;52.030;5.652;2023-04-02T21:01:42;5.50;99.90
43089;DHT22;28709;52.030;5.652;2023-04-02T21:04:07;5.50;99.90
43089;DHT22;28709;52.030;5.652;2023-04-02T21:06:36;5.40;99.90
43089;DHT22;28709;52.030;5.652;2023-04-02T21:09:05;5.40;99.90
43089;DHT22;28709;52.030;5.652;2023-04-02T21:11:31;5.40;99.90
43089;DHT22;28709;52.030;5.652;2023-04-02T21:13:56;5.30;99.90